Time;durP1;ratioP1;P1;durP2;ratioP2;P2;SDS_P1;SDS_P2;PMS_P1;PMS_P2;Temp;Humidity;BMP_temperature;BMP_pressure;BME280_temperature;BME280_humidity;BME280_pressure;Samples;Min_cycle;Max_cycle;Signal;HPM_P1;HPM_P2
2021/12/05 00:17:06;;;;;;;8.15;2.88;;;3.70;99.90;;;;;;4953874;28;20050;-82
2021/12/05 00:17:45;;;;;;;5.28;2.47;;;3.90;99.90;;;;;;4954651;28;20054;-82
2021/12/05 00:23:11;;;;;;;9.10;2.47;;;4.00;99.90;;;;;;4956802;28;20058;-83
2021/12/05 00:25:37;;;;;;;11.55;2.42;;;4.00;99.90;;;;;;4942575;28;20399;-83
2021/12/05 00:34:08;;;;;;;7.20;2.00;;;4.10;99.90;;;;;;4951132;28;20051;-83
2021/12/05 00:50:05;;;;;;;10.73;2.28;;;4.00;99.90;;;;;;4949065;28;20121;-82
2021/12/05 01:03:56;;;;;;;5.80;2.75;;;3.90;99.90;;;;;;4955541;28;20097;-82
2021/12/05 01:08:46;;;;;;;7.72;2.70;;;3.80;99.90;;;;;;4954286;28;20074;-83
2021/12/05 01:11:45;;;;;;;9.82;3.28;;;3.80;99.90;;;;;;4949107;28;20050;-83
2021/12/05 01:16:45;;;;;;;7.93;2.55;;;3.80;99.90;;;;;;4951567;28;20118;-82
2021/12/05 01:19:13;;;;;;;13.73;4.10;;;3.80;99.90;;;;;;4948846;28;20508;-83
2021/12/05 01:21:40;;;;;;;11.85;3.45;;;3.80;99.90;;;;;;4953309;28;20058;-82
2021/12/05 01:26:44;;;;;;;10.70;2.83;;;3.80;99.90;;;;;;4945132;28;20062;-82
2021/12/05 01:31:47;;;;;;;11.90;3.67;;;3.70;99.90;;;;;;4954059;28;20039;-82
2021/12/05 01:39:45;;;;;;;9.23;3.67;;;3.70;99.90;;;;;;4949574;28;20046;-83
2021/12/05 01:44:56;;;;;;;11.32;3.63;;;3.70;99.90;;;;;;4952095;28;20097;-83
2021/12/05 01:53:14;;;;;;;8.75;3.92;;;3.60;99.90;;;;;;4948337;28;20039;-83
2021/12/05 01:55:51;;;;;;;10.45;5.15;;;3.70;99.90;;;;;;4947416;28;20125;-82
2021/12/05 02:01:41;;;;;;;18.50;5.50;;;3.60;99.90;;;;;;4955695;28;20054;-82
2021/12/05 02:37:16;;;;;;;18.95;7.07;;;3.50;99.90;;;;;;4950973;28;20070;-82
2021/12/05 02:42:34;;;;;;;18.42;7.45;;;3.50;99.90;;;;;;4951620;28;20054;-83
2021/12/05 02:45:02;;;;;;;16.75;7.22;;;3.50;99.90;;;;;;4952390;28;20059;-83
2021/12/05 02:47:28;;;;;;;17.13;7.18;;;3.50;99.90;;;;;;4945803;28;20471;-83
2021/12/05 02:49:57;;;;;;;17.38;7.40;;;3.50;99.90;;;;;;4955297;28;20039;-83
2021/12/05 02:52:32;;;;;;;15.05;7.03;;;3.50;99.90;;;;;;4951825;28;20408;-83
2021/12/05 02:55:11;;;;;;;20.73;7.07;;;3.50;99.90;;;;;;4944640;28;20062;-82
2021/12/05 03:00:12;;;;;;;13.40;6.13;;;3.40;99.90;;;;;;4952302;28;20035;-82
2021/12/05 03:02:41;;;;;;;15.07;6.70;;;3.40;99.90;;;;;;4930267;28;20063;-83
2021/12/05 03:05:11;;;;;;;17.20;6.85;;;3.40;99.90;;;;;;4944234;28;20516;-82
2021/12/05 03:07:40;;;;;;;14.32;6.45;;;3.40;99.90;;;;;;4949823;28;20420;-83
2021/12/05 03:10:10;;;;;;;20.02;6.80;;;3.40;99.90;;;;;;4948468;28;20035;-83
2021/12/05 03:12:38;;;;;;;15.00;6.70;;;3.40;99.90;;;;;;4950159;28;20043;-82
2021/12/05 03:15:09;;;;;;;16.48;6.45;;;3.40;99.90;;;;;;4950221;28;20085;-83
2021/12/05 03:17:36;;;;;;;14.93;5.85;;;3.40;99.90;;;;;;4932844;28;20039;-82
2021/12/05 03:20:05;;;;;;;13.80;6.20;;;3.40;99.90;;;;;;4947691;28;20053;-82
2021/12/05 03:22:31;;;;;;;17.27;5.88;;;3.40;99.90;;;;;;4946288;28;20047;-82
2021/12/05 03:24:57;;;;;;;15.73;5.85;;;3.40;99.90;;;;;;4949933;28;20483;-83
2021/12/05 03:27:22;;;;;;;16.20;5.70;;;3.40;99.90;;;;;;4952419;28;20117;-83
2021/12/05 03:29:48;;;;;;;12.23;5.00;;;3.40;99.90;;;;;;4947588;28;20047;-83
2021/12/05 03:32:14;;;;;;;14.13;5.80;;;3.30;99.90;;;;;;4928570;28;20038;-83
2021/12/05 03:34:40;;;;;;;13.50;5.53;;;3.30;99.90;;;;;;4933584;28;20149;-83
2021/12/05 03:37:08;;;;;;;10.27;5.05;;;3.30;99.90;;;;;;4950400;28;20044;-82
2021/12/05 03:39:35;;;;;;;11.20;4.97;;;3.30;99.90;;;;;;4948832;28;20047;-83
2021/12/05 03:42:00;;;;;;;19.00;5.18;;;3.30;99.90;;;;;;4932336;28;20057;-83
2021/12/05 03:44:30;;;;;;;15.50;6.32;;;3.20;99.90;;;;;;4963146;28;20477;-83
2021/12/05 03:46:57;;;;;;;15.73;5.18;;;3.20;99.90;;;;;;4946645;28;20097;-82
2021/12/05 03:49:23;;;;;;;13.50;4.55;;;3.20;99.90;;;;;;4931917;28;20042;-83
2021/12/05 03:51:55;;;;;;;12.30;5.20;;;3.10;99.90;;;;;;4931911;28;20488;-82
2021/12/05 03:54:22;;;;;;;15.52;4.45;;;3.10;99.90;;;;;;4952097;28;20085;-82
2021/12/05 03:56:49;;;;;;;13.75;4.55;;;3.10;99.90;;;;;;4952647;28;20034;-82
2021/12/05 03:59:16;;;;;;;11.55;4.03;;;3.10;99.90;;;;;;4944185;28;20046;-82
2021/12/05 04:01:42;;;;;;;14.23;4.60;;;3.00;99.90;;;;;;4949582;28;20039;-82
2021/12/05 04:04:09;;;;;;;13.38;3.92;;;3.00;99.90;;;;;;4966248;28;20157;-83
2021/12/05 04:06:36;;;;;;;13.82;4.30;;;3.00;99.90;;;;;;4947849;29;20622;-83
2021/12/05 04:09:09;;;;;;;14.40;3.83;;;2.90;99.90;;;;;;4950702;28;20085;-82
2021/12/05 04:11:40;;;;;;;12.65;4.30;;;2.90;99.90;;;;;;4940585;28;20066;-82
2021/12/05 04:14:10;;;;;;;12.75;4.03;;;2.90;99.90;;;;;;4953732;28;20043;-83
2021/12/05 04:16:37;;;;;;;13.23;4.22;;;2.90;99.90;;;;;;4971139;28;20138;-82
2021/12/05 04:19:04;;;;;;;8.75;3.78;;;2.80;99.90;;;;;;4947922;28;20070;-82
2021/12/05 04:21:31;;;;;;;13.80;3.97;;;2.80;99.90;;;;;;4949894;28;20106;-83
2021/12/05 04:23:59;;;;;;;15.13;4.00;;;2.80;99.90;;;;;;4944926;28;20482;-82
2021/12/05 04:26:26;;;;;;;12.43;3.13;;;2.70;99.90;;;;;;4952431;28;20062;-82
2021/12/05 04:28:53;;;;;;;12.60;3.05;;;2.70;99.90;;;;;;4955901;28;20035;-83
2021/12/05 04:31:21;;;;;;;13.00;3.60;;;2.70;99.90;;;;;;4953818;28;20049;-82
2021/12/05 04:33:48;;;;;;;13.75;3.30;;;2.70;99.90;;;;;;4950937;28;20070;-83
2021/12/05 04:36:14;;;;;;;14.43;3.22;;;2.70;99.90;;;;;;4938675;28;20097;-83
2021/12/05 04:38:40;;;;;;;10.68;3.42;;;2.60;99.90;;;;;;4952350;28;20046;-83
2021/12/05 04:41:07;;;;;;;16.17;3.78;;;2.60;99.90;;;;;;4936781;28;20407;-83
2021/12/05 04:43:37;;;;;;;13.10;3.75;;;2.60;99.90;;;;;;4946708;28;20042;-83
2021/12/05 04:46:10;;;;;;;8.13;2.72;;;2.60;99.90;;;;;;4948011;28;20062;-83
2021/12/05 04:48:36;;;;;;;;;;;2.60;99.90;;;;;;4934737;28;20134;-83
2021/12/05 04:51:03;;;;;;;15.00;3.63;;;2.60;99.90;;;;;;4950534;28;20073;-83
2021/12/05 04:53:28;;;;;;;10.70;2.45;;;2.50;99.90;;;;;;4949677;28;20117;-82
2021/12/05 04:55:56;;;;;;;9.23;2.70;;;2.50;99.90;;;;;;4928693;28;20066;-82
2021/12/05 04:58:22;;;;;;;12.15;2.70;;;2.50;99.90;;;;;;4948501;28;20089;-83
2021/12/05 05:00:49;;;;;;;8.73;2.35;;;2.50;99.90;;;;;;4932764;28;20089;-83
2021/12/05 05:03:15;;;;;;;18.48;3.17;;;2.50;99.90;;;;;;4946021;28;20077;-83
2021/12/05 05:05:48;;;;;;;7.13;2.38;;;2.50;99.90;;;;;;4931179;28;20043;-83
2021/12/05 05:08:14;;;;;;;10.65;3.17;;;2.50;99.90;;;;;;4949783;28;20042;-83
2021/12/05 05:10:40;;;;;;;11.00;3.00;;;2.50;99.90;;;;;;4948248;28;20408;-82
2021/12/05 05:13:06;;;;;;;13.10;3.45;;;2.50;99.90;;;;;;4949083;28;20041;-83
2021/12/05 05:15:31;;;;;;;10.68;2.58;;;2.60;99.90;;;;;;4950411;28;20049;-83
2021/12/05 05:17:59;;;;;;;15.48;2.83;;;2.60;99.90;;;;;;4946525;28;20051;-83
2021/12/05 05:20:35;;;;;;;17.58;3.15;;;2.70;99.90;;;;;;4951537;28;20051;-83
2021/12/05 05:39:12;;;;;;;10.25;2.95;;;2.80;99.90;;;;;;4951364;28;20485;-83
2021/12/05 05:42:33;;;;;;;9.63;2.60;;;3.00;99.90;;;;;;4968528;28;20492;-82
2021/12/05 05:50:11;;;;;;;13.75;2.88;;;3.10;99.90;;;;;;4934374;28;20043;-83
2021/12/05 05:52:37;;;;;;;9.07;2.17;;;3.10;99.90;;;;;;4955559;28;20097;-83
2021/12/05 05:55:03;;;;;;;10.55;2.58;;;3.10;99.90;;;;;;4965966;28;20035;-83
2021/12/05 05:57:43;;;;;;;14.85;2.97;;;3.20;99.90;;;;;;4955778;28;20054;-83
2021/12/05 06:00:20;;;;;;;10.18;2.67;;;3.20;99.90;;;;;;4929699;28;20045;-83
2021/12/05 06:05:32;;;;;;;10.50;3.20;;;3.20;99.90;;;;;;4954119;28;20400;-82
2021/12/05 06:07:58;;;;;;;14.73;3.45;;;3.20;99.90;;;;;;4956657;28;20073;-83
2021/12/05 06:10:28;;;;;;;12.50;3.78;;;3.20;99.90;;;;;;4955521;28;20444;-82
2021/12/05 06:12:54;;;;;;;12.18;3.65;;;3.20;99.90;;;;;;4951380;28;20081;-82
2021/12/05 06:15:23;;;;;;;10.88;3.78;;;3.20;99.90;;;;;;4934712;28;20038;-83
2021/12/05 06:17:49;;;;;;;14.60;4.13;;;3.20;99.90;;;;;;4947771;28;20054;-83
2021/12/05 06:20:17;;;;;;;16.80;3.78;;;3.20;99.90;;;;;;4950828;28;20042;-82
2021/12/05 06:22:45;;;;;;;10.43;4.32;;;3.30;99.90;;;;;;4934191;29;20039;-83
2021/12/05 06:25:19;;;;;;;12.43;4.20;;;3.30;99.90;;;;;;4954599;28;20070;-83
2021/12/05 06:27:46;;;;;;;11.13;3.35;;;3.30;99.90;;;;;;4950569;28;20124;-82
2021/12/05 06:30:20;;;;;;;11.30;3.58;;;3.30;99.90;;;;;;4953595;28;20043;-83
2021/12/05 06:41:24;;;;;;;12.25;4.15;;;3.30;99.90;;;;;;4948287;28;20055;-82
2021/12/05 06:48:49;;;;;;;16.50;5.72;;;3.30;99.90;;;;;;4946856;29;20062;-82
2021/12/05 06:51:19;;;;;;;11.68;4.55;;;3.40;99.90;;;;;;4951240;28;20062;-82
2021/12/05 06:53:46;;;;;;;14.27;5.18;;;3.40;99.90;;;;;;4950127;28;20043;-82
2021/12/05 06:56:11;;;;;;;12.32;4.93;;;3.40;99.90;;;;;;4951913;28;20136;-83
2021/12/05 06:58:38;;;;;;;14.10;4.80;;;3.40;99.90;;;;;;4951383;28;20043;-82
2021/12/05 07:01:07;;;;;;;10.93;4.43;;;3.40;99.90;;;;;;4934739;28;20046;-83
2021/12/05 07:03:34;;;;;;;16.48;5.03;;;3.50;99.90;;;;;;4926111;28;20508;-82
2021/12/05 07:06:13;;;;;;;15.35;5.35;;;3.50;99.90;;;;;;4953043;28;20097;-83
2021/12/05 07:08:40;;;;;;;17.00;5.07;;;3.50;99.90;;;;;;4934745;28;20042;-82
2021/12/05 07:11:35;;;;;;;10.13;4.20;;;3.50;99.90;;;;;;4951995;28;20027;-83
2021/12/05 07:16:53;;;;;;;12.80;4.68;;;3.50;99.90;;;;;;4953629;28;20042;-82
2021/12/05 07:22:17;;;;;;;15.57;5.45;;;3.50;99.90;;;;;;4949325;28;20050;-83
2021/12/05 07:25:03;;;;;;;14.95;4.65;;;3.60;99.90;;;;;;4947966;28;20507;-82
2021/12/05 07:41:41;;;;;;;15.73;5.85;;;3.60;99.90;;;;;;4950791;28;20501;-83
2021/12/05 07:44:07;;;;;;;17.17;5.72;;;3.70;99.90;;;;;;4952091;28;20062;-83
2021/12/05 07:46:32;;;;;;;11.98;5.28;;;3.70;99.90;;;;;;4950438;28;20042;-83
2021/12/05 07:48:58;;;;;;;16.38;5.40;;;3.70;99.90;;;;;;4952461;28;20112;-83
2021/12/05 07:51:27;;;;;;;11.73;5.53;;;3.70;99.90;;;;;;4933716;28;20447;-82
2021/12/05 07:56:39;;;;;;;15.35;5.88;;;3.70;99.90;;;;;;4949057;28;20241;-82
2021/12/05 08:00:07;;;;;;;12.07;5.20;;;3.70;99.90;;;;;;4952912;28;20042;-82
2021/12/05 08:15:45;;;;;;;13.18;4.70;;;3.80;99.90;;;;;;4949639;28;20054;-82
2021/12/05 08:18:11;;;;;;;12.75;5.05;;;3.80;99.90;;;;;;4950653;28;20043;-83
2021/12/05 08:20:41;;;;;;;13.65;5.32;;;3.90;99.90;;;;;;4951441;28;20387;-83
2021/12/05 08:23:08;;;;;;;19.05;7.28;;;3.90;99.90;;;;;;4949811;28;20070;-82
2021/12/05 08:25:38;;;;;;;12.52;6.05;;;3.90;99.90;;;;;;4936281;28;20089;-83
2021/12/05 08:28:31;;;;;;;17.10;6.20;;;3.90;99.90;;;;;;4950613;28;20054;-83
2021/12/05 08:31:16;;;;;;;17.02;5.88;;;3.90;99.90;;;;;;4930550;28;20039;-83
2021/12/05 08:34:01;;;;;;;12.02;5.45;;;3.90;99.90;;;;;;4932316;28;20046;-83
2021/12/05 08:37:06;;;;;;;13.30;5.47;;;3.90;99.90;;;;;;4948814;28;20070;-83
2021/12/05 08:39:59;;;;;;;10.38;4.90;;;3.90;99.90;;;;;;4963415;28;20568;-82
2021/12/05 09:27:02;;;;;;;9.73;4.95;;;4.00;99.90;;;;;;4905940;28;20504;-83
2021/12/05 09:38:29;;;;;;;15.68;5.47;;;4.00;99.90;;;;;;4970183;28;20051;-83
2021/12/05 10:01:46;;;;;;;11.48;3.95;;;4.10;99.90;;;;;;4952948;28;20137;-83
2021/12/05 10:07:33;;;;;;;12.32;4.57;;;4.20;99.90;;;;;;4948625;28;20134;-83
2021/12/05 10:10:11;;;;;;;9.98;3.97;;;4.20;99.90;;;;;;4951601;28;20046;-83
2021/12/05 10:18:46;;;;;;;8.30;4.40;;;4.30;99.90;;;;;;4952551;28;20060;-83
2021/12/05 10:38:01;;;;;;;8.80;4.78;;;4.30;99.90;;;;;;4946748;28;20121;-82
2021/12/05 10:40:40;;;;;;;11.95;4.40;;;4.30;99.90;;;;;;4953224;28;20042;-82
2021/12/05 10:43:13;;;;;;;9.80;3.95;;;4.30;99.90;;;;;;4950066;28;20039;-82
2021/12/05 10:46:05;;;;;;;12.20;4.03;;;4.30;99.90;;;;;;4958809;28;20108;-82
2021/12/05 10:48:36;;;;;;;8.90;4.00;;;4.30;99.90;;;;;;4945033;28;20419;-82
2021/12/05 10:51:12;;;;;;;8.67;3.67;;;4.30;99.90;;;;;;4950396;28;20050;-82
2021/12/05 10:53:46;;;;;;;8.38;4.03;;;4.30;99.90;;;;;;4951690;28;20162;-82
2021/12/05 10:56:15;;;;;;;9.45;4.45;;;4.30;99.90;;;;;;4939578;28;20045;-82
2021/12/05 10:58:52;;;;;;;10.20;4.00;;;4.30;99.90;;;;;;4948545;28;20051;-83
2021/12/05 11:01:17;;;;;;;11.90;3.85;;;4.30;99.90;;;;;;4934533;28;20059;-83
2021/12/05 11:03:44;;;;;;;10.65;3.72;;;4.30;99.90;;;;;;4950482;28;20066;-83
2021/12/05 11:06:21;;;;;;;9.23;3.90;;;4.30;99.90;;;;;;4949382;28;20055;-82
2021/12/05 11:08:50;;;;;;;15.93;4.20;;;4.30;99.90;;;;;;4941741;28;20038;-82
2021/12/05 11:11:17;;;;;;;11.95;3.70;;;4.40;99.90;;;;;;4948045;28;20118;-82
2021/12/05 11:13:45;;;;;;;7.75;3.63;;;4.40;99.90;;;;;;4958356;28;20066;-82
2021/12/05 11:16:34;;;;;;;10.18;3.58;;;4.40;99.90;;;;;;4957541;28;20392;-82
2021/12/05 11:19:01;;;;;;;7.85;3.92;;;4.50;99.90;;;;;;4930431;28;20504;-82
2021/12/05 11:21:34;;;;;;;9.40;3.90;;;4.50;99.90;;;;;;4947384;28;20045;-82
2021/12/05 11:24:12;;;;;;;7.75;4.30;;;4.50;99.90;;;;;;4947553;28;20094;-82
2021/12/05 11:26:42;;;;;;;7.32;3.40;;;4.60;99.90;;;;;;4964637;28;20476;-82
2021/12/05 11:29:09;;;;;;;8.10;4.78;;;4.60;99.90;;;;;;4953882;28;20043;-82
2021/12/05 11:31:37;;;;;;;10.52;4.68;;;4.70;99.90;;;;;;4933105;28;20483;-82
2021/12/05 11:34:03;;;;;;;9.20;4.13;;;4.70;99.90;;;;;;4947675;28;20082;-83
2021/12/05 11:36:33;;;;;;;7.45;3.70;;;4.70;99.90;;;;;;4948926;28;20129;-83
2021/12/05 11:38:59;;;;;;;10.45;3.50;;;4.80;99.90;;;;;;4934790;28;20165;-83
2021/12/05 11:41:25;;;;;;;7.45;3.10;;;4.80;99.90;;;;;;4949911;28;20051;-83
2021/12/05 11:43:54;;;;;;;7.40;3.85;;;4.90;99.90;;;;;;4967029;28;20047;-83
2021/12/05 11:46:27;;;;;;;9.05;4.25;;;5.00;99.90;;;;;;4951411;28;20046;-83
2021/12/05 11:49:04;;;;;;;7.40;3.58;;;5.00;99.90;;;;;;4945992;28;20049;-83
2021/12/05 11:51:37;;;;;;;9.32;3.47;;;5.10;99.90;;;;;;4947979;28;20074;-83
2021/12/05 11:54:08;;;;;;;8.23;3.63;;;5.10;99.90;;;;;;4949513;28;20035;-83
2021/12/05 11:56:33;;;;;;;7.80;3.45;;;5.20;99.90;;;;;;4948884;28;20050;-83
2021/12/05 11:59:10;;;;;;;6.35;3.20;;;5.20;99.90;;;;;;4949053;28;20053;-83
2021/12/05 12:01:47;;;;;;;6.68;3.50;;;5.30;99.90;;;;;;4930112;28;20027;-83
2021/12/05 12:04:17;;;;;;;8.10;3.60;;;5.40;99.90;;;;;;4932031;28;20094;-83
2021/12/05 12:06:44;;;;;;;6.68;3.25;;;5.40;99.90;;;;;;4935651;28;20484;-83
2021/12/05 12:09:10;;;;;;;8.02;4.15;;;5.40;99.90;;;;;;4929277;28;20035;-83
2021/12/05 12:11:35;;;;;;;6.80;3.35;;;5.40;99.90;;;;;;4966852;28;20117;-83
2021/12/05 12:14:02;;;;;;;6.93;3.40;;;5.50;99.90;;;;;;4947377;28;20074;-83
2021/12/05 12:16:33;;;;;;;7.72;2.83;;;5.50;99.90;;;;;;4931520;28;20137;-83
2021/12/05 12:18:59;;;;;;;7.68;3.25;;;5.50;99.90;;;;;;4933629;28;20042;-83
2021/12/05 12:21:36;;;;;;;7.38;3.40;;;5.50;99.90;;;;;;4955418;28;20619;-83
2021/12/05 12:24:01;;;;;;;6.65;2.92;;;5.50;99.90;;;;;;4931984;28;20046;-83
2021/12/05 12:26:27;;;;;;;6.88;3.15;;;5.60;99.90;;;;;;4951798;28;20481;-83
2021/12/05 12:28:56;;;;;;;8.43;3.10;;;5.60;99.90;;;;;;4933739;28;20058;-82
2021/12/05 12:31:32;;;;;;;5.10;2.95;;;5.60;99.90;;;;;;4948004;28;20372;-82
2021/12/05 12:34:03;;;;;;;7.93;2.97;;;5.70;99.90;;;;;;4952717;28;20042;-82
2021/12/05 12:36:35;;;;;;;6.00;3.00;;;5.70;99.90;;;;;;4936195;28;20046;-82
2021/12/05 12:39:05;;;;;;;5.32;2.67;;;5.70;99.90;;;;;;4936337;28;20410;-82
2021/12/05 12:41:31;;;;;;;4.78;2.40;;;5.70;99.90;;;;;;4952287;28;20101;-83
2021/12/05 12:44:03;;;;;;;5.13;2.35;;;5.70;99.90;;;;;;4949825;28;20046;-83
2021/12/05 12:46:52;;;;;;;6.10;2.45;;;5.70;99.90;;;;;;4947635;28;20101;-83
2021/12/05 12:49:18;;;;;;;4.70;2.50;;;5.60;99.90;;;;;;4949451;28;20050;-82
2021/12/05 12:52:09;;;;;;;5.70;2.78;;;5.60;99.90;;;;;;4961138;28;20039;-82
2021/12/05 12:54:57;;;;;;;9.55;3.10;;;5.50;99.90;;;;;;4941008;28;20129;-83
2021/12/05 12:57:33;;;;;;;5.15;2.97;;;5.50;99.90;;;;;;4935358;28;20149;-83
2021/12/05 13:00:05;;;;;;;4.90;2.75;;;5.40;99.90;;;;;;4950379;28;20110;-83
2021/12/05 13:02:53;;;;;;;7.88;2.80;;;5.40;99.90;;;;;;4953193;28;20050;-83
2021/12/05 13:11:10;;;;;;;6.18;2.90;;;5.30;99.90;;;;;;4967320;28;20517;-83
2021/12/05 13:13:39;;;;;;;5.93;2.55;;;5.30;99.90;;;;;;4927255;28;20047;-83
2021/12/05 13:16:13;;;;;;;4.97;2.65;;;5.20;99.90;;;;;;4953069;28;20046;-83
2021/12/05 13:18:40;;;;;;;5.53;2.72;;;5.20;99.90;;;;;;4953639;28;20050;-83
2021/12/05 13:21:26;;;;;;;4.05;2.38;;;5.20;99.90;;;;;;4953333;28;20034;-83
2021/12/05 13:23:52;;;;;;;5.15;2.53;;;5.20;99.90;;;;;;4936638;28;20093;-83
2021/12/05 13:26:50;;;;;;;6.72;2.88;;;5.10;99.90;;;;;;4951652;28;20061;-82
2021/12/05 13:29:17;;;;;;;6.07;2.95;;;5.10;99.90;;;;;;4894897;28;20396;-83
2021/12/05 13:32:05;;;;;;;4.63;2.58;;;5.10;99.90;;;;;;4953706;28;20050;-82
2021/12/05 13:34:43;;;;;;;5.47;2.55;;;5.10;99.90;;;;;;4950411;28;20504;-82
2021/12/05 13:37:08;;;;;;;6.03;3.60;;;5.10;99.90;;;;;;4943595;28;20043;-83
2021/12/05 13:39:49;;;;;;;7.30;2.92;;;5.10;99.90;;;;;;4954319;28;20097;-83
2021/12/05 13:42:18;;;;;;;7.13;3.15;;;5.10;99.90;;;;;;4929138;28;20043;-83
2021/12/05 13:45:05;;;;;;;6.30;3.28;;;5.10;99.90;;;;;;4953377;28;20467;-83
2021/12/05 13:47:37;;;;;;;5.78;2.67;;;5.10;99.90;;;;;;4964905;28;20051;-82
2021/12/05 13:50:30;;;;;;;5.75;2.97;;;5.10;99.90;;;;;;4939678;28;20066;-82
2021/12/05 13:52:55;;;;;;;;;;;5.10;99.90;;;;;;4952146;28;20043;-82
2021/12/05 13:55:41;;;;;;;6.75;2.58;;;5.10;99.90;;;;;;4946219;28;19922;-83
2021/12/05 13:58:35;;;;;;;7.90;3.90;;;5.20;99.90;;;;;;4926412;29;20411;-83
2021/12/05 14:01:23;;;;;;;6.38;3.10;;;5.20;99.90;;;;;;4882283;29;20072;-83
2021/12/05 14:04:08;;;;;;;6.90;2.83;;;5.20;99.90;;;;;;4903452;29;20119;-83
2021/12/05 14:06:53;;;;;;;4.75;2.90;;;5.20;99.90;;;;;;4905775;29;20045;-83
2021/12/05 14:09:40;;;;;;;5.13;2.40;;;5.20;99.90;;;;;;4886437;29;20088;-83
2021/12/05 14:12:17;;;;;;;5.45;2.72;;;5.20;99.90;;;;;;4880316;29;20414;-83
2021/12/05 14:14:48;;;;;;;5.97;2.72;;;5.20;99.90;;;;;;4895022;29;20593;-83
2021/12/05 14:17:32;;;;;;;5.78;2.63;;;5.20;99.90;;;;;;4895238;29;20087;-83
2021/12/05 14:20:07;;;;;;;4.60;2.60;;;5.30;99.90;;;;;;4896512;29;20577;-83
2021/12/05 14:22:35;;;;;;;4.43;2.60;;;5.30;99.90;;;;;;4896498;29;20048;-83
2021/12/05 14:25:09;;;;;;;7.85;2.72;;;5.30;99.90;;;;;;4903002;29;20102;-83
2021/12/05 14:27:39;;;;;;;5.63;2.67;;;5.20;99.90;;;;;;4895668;29;20083;-83
2021/12/05 14:30:08;;;;;;;6.82;3.20;;;5.20;99.90;;;;;;4943803;28;20762;-83
2021/12/05 14:32:38;;;;;;;6.50;3.45;;;5.20;99.90;;;;;;4937099;28;20420;-84
2021/12/05 14:35:06;;;;;;;6.32;3.25;;;5.20;99.90;;;;;;4932379;28;20047;-84
2021/12/05 14:37:33;;;;;;;5.45;2.70;;;5.20;99.90;;;;;;4933782;28;20559;-83
2021/12/05 14:40:11;;;;;;;5.95;3.20;;;5.20;99.90;;;;;;4929336;28;20488;-83
2021/12/05 14:42:40;;;;;;;6.45;3.15;;;5.20;99.90;;;;;;4949421;28;20042;-83
2021/12/05 14:45:21;;;;;;;4.10;2.45;;;5.20;99.90;;;;;;4931917;28;20118;-83
2021/12/05 14:47:49;;;;;;;4.70;2.73;;;5.20;99.90;;;;;;4951031;28;20042;-83
2021/12/05 14:50:17;;;;;;;6.30;2.72;;;5.20;99.90;;;;;;4950538;28;20449;-83
2021/12/05 14:52:46;;;;;;;7.10;2.95;;;5.20;99.90;;;;;;4950866;28;20113;-83
2021/12/05 14:55:15;;;;;;;4.63;2.33;;;5.10;99.90;;;;;;4949414;28;20469;-83
2021/12/05 14:57:46;;;;;;;5.88;3.20;;;5.10;99.90;;;;;;4936730;28;20049;-83
2021/12/05 15:00:18;;;;;;;8.20;3.10;;;5.10;99.90;;;;;;4969589;28;20117;-83
2021/12/05 15:02:45;;;;;;;5.57;2.45;;;5.10;99.90;;;;;;4951377;28;20081;-83
2021/12/05 15:05:16;;;;;;;4.85;2.22;;;5.10;99.90;;;;;;4950170;28;20504;-83
2021/12/05 15:07:43;;;;;;;6.35;3.40;;;5.00;99.90;;;;;;4932919;28;20405;-83
2021/12/05 15:10:09;;;;;;;7.53;4.30;;;5.00;99.90;;;;;;4951165;28;20031;-83
2021/12/05 15:12:35;;;;;;;9.00;3.72;;;5.00;99.90;;;;;;4932857;28;20121;-83
2021/12/05 15:15:12;;;;;;;7.50;4.65;;;5.00;99.90;;;;;;4946467;28;20034;-83
2021/12/05 15:17:40;;;;;;;7.53;3.90;;;5.00;99.90;;;;;;4964708;28;20547;-83
2021/12/05 15:20:13;;;;;;;7.82;3.20;;;5.00;99.90;;;;;;4954341;28;20042;-83
2021/12/05 15:22:41;;;;;;;7.47;3.50;;;5.00;99.90;;;;;;4945165;28;20042;-83
2021/12/05 15:25:11;;;;;;;5.88;3.22;;;5.00;99.90;;;;;;4950216;28;20047;-83
2021/12/05 15:27:37;;;;;;;7.45;3.05;;;5.00;99.90;;;;;;4938729;28;20373;-83
2021/12/05 15:30:03;;;;;;;7.10;3.40;;;4.90;99.90;;;;;;4961231;28;20269;-83
2021/12/05 15:32:30;;;;;;;6.80;3.10;;;4.90;99.90;;;;;;4936160;28;20442;-83
2021/12/05 15:35:03;;;;;;;7.25;3.72;;;4.90;99.90;;;;;;4951168;28;21804;-83
2021/12/05 15:37:29;;;;;;;5.72;3.40;;;4.90;99.90;;;;;;4951529;28;20046;-83
2021/12/05 15:39:57;;;;;;;5.88;3.75;;;4.90;99.90;;;;;;4949799;28;20483;-83
2021/12/05 15:42:36;;;;;;;7.35;4.63;;;4.90;99.90;;;;;;4937465;28;20089;-83
2021/12/05 15:45:06;;;;;;;6.13;3.80;;;4.90;99.90;;;;;;4951238;28;20051;-83
2021/12/05 15:47:34;;;;;;;9.27;4.20;;;4.90;99.90;;;;;;4932249;29;20067;-82
2021/12/05 15:50:16;;;;;;;8.32;4.60;;;4.90;99.90;;;;;;4951046;28;20403;-83
2021/12/05 15:52:45;;;;;;;7.93;5.72;;;4.90;99.90;;;;;;4949405;28;20429;-83
2021/12/05 15:55:16;;;;;;;9.63;5.07;;;4.90;99.90;;;;;;4938363;28;20480;-83
2021/12/05 15:57:46;;;;;;;8.45;4.30;;;4.90;99.90;;;;;;4944670;28;20050;-83
2021/12/05 16:00:21;;;;;;;9.13;5.03;;;4.90;99.90;;;;;;4960676;28;20170;-83
2021/12/05 16:02:48;;;;;;;9.60;4.43;;;4.80;99.90;;;;;;4935568;28;20141;-83
2021/12/05 16:05:20;;;;;;;8.43;3.90;;;4.80;99.90;;;;;;4950749;28;20576;-83
2021/12/05 16:07:46;;;;;;;;;;;4.80;99.90;;;;;;4939789;28;20047;-83
2021/12/05 16:10:16;;;;;;;8.05;4.05;;;4.70;99.90;;;;;;4933472;28;19918;-83
2021/12/05 16:12:44;;;;;;;6.57;3.75;;;4.70;99.90;;;;;;4957602;28;20419;-83
2021/12/05 16:15:11;;;;;;;6.97;4.47;;;4.70;99.90;;;;;;4950496;28;20303;-82
2021/12/05 16:17:37;;;;;;;9.35;4.95;;;4.60;99.90;;;;;;4949336;28;20047;-82
2021/12/05 16:20:09;;;;;;;7.30;4.10;;;4.60;99.90;;;;;;4931294;28;20105;-82
2021/12/05 16:23:11;;;;;;;8.48;4.70;;;4.60;99.90;;;;;;4937576;28;20139;-82
2021/12/05 16:26:02;;;;;;;8.95;4.80;;;4.50;99.90;;;;;;4950122;28;20029;-83
2021/12/05 16:28:48;;;;;;;8.10;4.90;;;4.50;99.90;;;;;;4922507;28;20051;-84
2021/12/05 16:31:23;;;;;;;10.18;5.82;;;4.50;99.90;;;;;;4949684;28;20082;-83
2021/12/05 16:33:54;;;;;;;7.82;4.75;;;4.40;99.90;;;;;;4946402;28;20130;-83
2021/12/05 16:36:21;;;;;;;8.25;4.70;;;4.40;99.90;;;;;;4932303;28;20046;-83
2021/12/05 16:38:50;;;;;;;7.78;4.75;;;4.40;99.90;;;;;;4930567;28;20038;-83
2021/12/05 16:41:30;;;;;;;7.70;4.88;;;4.40;99.90;;;;;;4950389;28;20046;-83
2021/12/05 16:44:01;;;;;;;9.23;5.50;;;4.40;99.90;;;;;;4968454;28;20444;-83
2021/12/05 16:46:42;;;;;;;7.20;4.70;;;4.40;99.90;;;;;;4936897;28;20408;-83
2021/12/05 16:49:13;;;;;;;11.00;6.15;;;4.40;99.90;;;;;;4940813;28;20458;-83
2021/12/05 16:51:44;;;;;;;6.30;4.65;;;4.40;99.90;;;;;;4936309;28;20394;-83
2021/12/05 16:54:34;;;;;;;8.10;5.43;;;4.40;99.90;;;;;;4931222;28;20037;-83
2021/12/05 16:57:18;;;;;;;9.48;5.88;;;4.40;99.90;;;;;;4952216;28;20118;-84
2021/12/05 16:59:50;;;;;;;7.75;4.88;;;4.40;99.90;;;;;;4933605;28;20042;-83
2021/12/05 17:02:27;;;;;;;9.82;5.00;;;4.40;99.90;;;;;;4951824;28;20039;-84
2021/12/05 17:05:08;;;;;;;9.60;5.22;;;4.40;99.90;;;;;;4943653;28;20606;-83
2021/12/05 17:07:43;;;;;;;10.40;5.55;;;4.40;99.90;;;;;;4949907;28;20066;-83
2021/12/05 17:10:21;;;;;;;12.18;6.18;;;4.40;99.90;;;;;;4948371;28;20117;-83
2021/12/05 17:13:10;;;;;;;11.23;6.70;;;4.40;99.90;;;;;;4944257;28;20047;-83
2021/12/05 17:15:43;;;;;;;14.50;7.45;;;4.40;99.90;;;;;;4947994;28;20992;-83
2021/12/05 17:18:43;;;;;;;10.07;5.93;;;4.40;99.90;;;;;;4947287;28;20130;-83
2021/12/05 17:21:14;;;;;;;12.00;6.18;;;4.40;99.90;;;;;;4923579;28;20054;-83
2021/12/05 17:23:45;;;;;;;11.15;6.88;;;4.40;99.90;;;;;;4965005;28;20488;-83
2021/12/05 17:26:19;;;;;;;10.13;6.07;;;4.40;99.90;;;;;;4963675;28;20046;-83
2021/12/05 17:28:49;;;;;;;10.07;6.32;;;4.40;99.90;;;;;;4966543;28;20088;-83
2021/12/05 17:31:21;;;;;;;12.85;6.35;;;4.40;99.90;;;;;;4982290;28;20550;-83
2021/12/05 17:33:51;;;;;;;12.13;6.47;;;4.40;99.90;;;;;;4985652;28;20042;-83
2021/12/05 17:36:38;;;;;;;10.27;6.03;;;4.40;99.90;;;;;;4987758;28;20456;-83
2021/12/05 17:39:12;;;;;;;12.80;7.15;;;4.40;99.90;;;;;;4983937;28;20034;-83
2021/12/05 17:41:39;;;;;;;13.60;7.97;;;4.40;99.90;;;;;;4967104;28;20429;-83
2021/12/05 17:44:05;;;;;;;12.07;7.38;;;4.40;99.90;;;;;;4987606;28;20095;-82
2021/12/05 17:46:33;;;;;;;13.88;6.63;;;4.40;99.90;;;;;;4990320;28;20053;-82
2021/12/05 17:49:01;;;;;;;12.57;6.35;;;4.40;99.90;;;;;;4986157;28;20033;-82
2021/12/05 17:51:34;;;;;;;8.45;5.13;;;4.40;99.90;;;;;;4976909;28;20045;-82
2021/12/05 17:54:00;;;;;;;9.15;5.68;;;4.40;99.90;;;;;;4973304;28;20117;-82
2021/12/05 17:56:38;;;;;;;9.93;5.40;;;4.40;99.90;;;;;;4971174;28;20129;-82
2021/12/05 18:04:37;;;;;;;9.88;5.63;;;4.40;99.90;;;;;;4988091;28;20384;-82
2021/12/05 18:07:02;;;;;;;8.35;4.97;;;4.40;99.90;;;;;;4992590;28;20138;-82
2021/12/05 18:09:28;;;;;;;10.05;5.93;;;4.40;99.90;;;;;;4969730;28;20542;-82
2021/12/05 18:11:54;;;;;;;11.25;5.72;;;4.40;99.90;;;;;;4968706;28;20064;-82
2021/12/05 18:14:20;;;;;;;8.38;4.88;;;4.40;99.90;;;;;;4989017;28;20054;-82
2021/12/05 18:16:45;;;;;;;10.80;6.25;;;4.40;99.90;;;;;;4987936;28;20065;-82